Time;durP1;ratioP1;P1;durP2;ratioP2;P2;SDS_P1;SDS_P2;PMS_P1;PMS_P2;Temp;Humidity;BMP_temperature;BMP_pressure;BME280_temperature;BME280_humidity;BME280_pressure;Samples;Min_cycle;Max_cycle;Signal;HPM_P1;HPM_P2
2023/04/03 00:01:09;;;;;;;;;;;;;;;6.32;100.00;98587.84;5107169;28;19947;-68
2023/04/03 00:03:35;;;;;;;;;;;;;;;6.14;100.00;98593.09;5127493;28;19942;-68
2023/04/03 00:06:02;;;;;;;;;;;;;;;6.18;100.00;98596.97;5125215;28;19942;-69
2023/04/03 00:08:30;;;;;;;;;;;;;;;5.88;100.00;98593.34;5124616;28;19955;-68
2023/04/03 00:10:58;;;;;;;;;;;;;;;6.19;100.00;98595.13;5123616;28;19924;-68
2023/04/03 00:13:24;;;;;;;;;;;;;;;5.77;100.00;98594.00;5111235;28;19962;-69
2023/04/03 00:15:51;;;;;;;;;;;;;;;5.96;100.00;98587.75;5110284;28;19989;-68
2023/04/03 00:18:17;;;;;;;;;;;;;;;6.37;100.00;98592.50;5110956;28;19924;-69
2023/04/03 00:20:44;;;;;;;;;;;;;;;6.26;100.00;98587.88;5110974;28;19979;-70
2023/04/03 00:23:10;;;;;;;;;;;;;;;6.40;100.00;98592.88;5110215;28;20164;-70
2023/04/03 00:25:37;;;;;;;;;;;;;;;5.98;100.00;98591.00;5110949;28;19959;-70
2023/04/03 00:28:05;;;;;;;;;;;;;;;6.80;100.00;98592.44;5110577;28;19962;-69
2023/04/03 00:30:32;;;;;;;;;;;;;;;5.93;100.00;98599.63;5113266;28;19988;-69
2023/04/03 00:32:58;;;;;;;;;;;;;;;6.13;100.00;98598.66;5119110;28;20593;-69
2023/04/03 00:35:25;;;;;;;;;;;;;;;6.39;100.00;98604.50;5110651;28;19950;-71
2023/04/03 00:37:52;;;;;;;;;;;;;;;5.72;100.00;98599.13;5110562;28;20029;-69
2023/04/03 00:40:18;;;;;;;;;;;;;;;5.53;100.00;98597.44;5100971;28;19956;-70
2023/04/03 00:42:45;;;;;;;;;;;;;;;5.27;100.00;98599.22;5110674;28;19959;-69
2023/04/03 00:45:25;;;;;;;;;;;;;;;5.23;100.00;98608.59;5110303;28;19948;-68
2023/04/03 00:47:52;;;;;;;;;;;;;;;4.98;100.00;98599.78;5100722;28;19987;-68
2023/04/03 00:50:18;;;;;;;;;;;;;;;5.63;100.00;98601.22;5121478;28;19942;-67
2023/04/03 00:52:46;;;;;;;;;;;;;;;5.29;100.00;98606.94;5103671;28;19983;-68
2023/04/03 00:55:14;;;;;;;;;;;;;;;5.73;100.00;98592.78;5120016;28;20485;-68
2023/04/03 00:57:41;;;;;;;;;;;;;;;5.31;100.00;98600.41;5119260;28;19924;-69
2023/04/03 01:00:10;;;;;;;;;;;;;;;4.92;100.00;98600.59;5121165;28;19992;-69
2023/04/03 01:02:40;;;;;;;;;;;;;;;5.08;100.00;98600.09;5115247;28;19920;-67
2023/04/03 01:05:07;;;;;;;;;;;;;;;5.37;100.00;98591.63;5120576;28;19924;-69
2023/04/03 01:07:36;;;;;;;;;;;;;;;4.90;100.00;98597.34;5118462;28;19960;-68
2023/04/03 01:10:05;;;;;;;;;;;;;;;5.35;100.00;98593.66;5100671;28;19995;-68
2023/04/03 01:12:33;;;;;;;;;;;;;;;4.80;100.00;98599.63;5121968;28;19924;-71
2023/04/03 01:15:00;;;;;;;;;;;;;;;5.21;100.00;98592.13;5120522;28;19930;-68
2023/04/03 01:17:31;;;;;;;;;;;;;;;5.36;100.00;98600.56;5100182;28;19962;-68
2023/04/03 01:20:15;;;;;;;;;;;;;;;5.11;100.00;98593.56;5118163;28;19987;-67
2023/04/03 01:22:48;;;;;;;;;;;;;;;5.10;100.00;98594.63;5109450;28;19924;-67
2023/04/03 01:25:15;;;;;;;;;;;;;;;5.21;100.00;98597.41;5108958;28;19983;-71
2023/04/03 01:27:41;;;;;;;;;;;;;;;5.66;100.00;98606.13;5091550;28;19991;-70
2023/04/03 01:30:08;;;;;;;;;;;;;;;5.21;100.00;98613.28;5112334;28;19959;-68
2023/04/03 01:32:36;;;;;;;;;;;;;;;4.93;100.00;98607.50;5114961;28;19935;-70
2023/04/03 01:35:03;;;;;;;;;;;;;;;5.11;100.00;98604.97;5120782;28;19953;-70
2023/04/03 01:37:29;;;;;;;;;;;;;;;5.39;100.00;98610.75;5100013;28;19935;-70
2023/04/03 01:39:55;;;;;;;;;;;;;;;5.32;100.00;98612.63;5118185;28;19959;-69
2023/04/03 01:42:22;;;;;;;;;;;;;;;6.10;100.00;98610.47;5120923;28;19974;-69
2023/04/03 01:44:48;;;;;;;;;;;;;;;6.26;100.00;98614.41;5121010;28;19987;-67
2023/04/03 01:47:15;;;;;;;;;;;;;;;6.10;100.00;98610.47;5118378;28;19971;-67
2023/04/03 01:49:42;;;;;;;;;;;;;;;6.29;100.00;98617.44;5098993;28;19935;-69
2023/04/03 01:52:09;;;;;;;;;;;;;;;6.00;100.00;98615.47;5118208;28;19983;-68
2023/04/03 01:54:35;;;;;;;;;;;;;;;5.72;100.00;98620.34;5120833;28;19931;-69
2023/04/03 01:57:01;;;;;;;;;;;;;;;6.32;100.00;98614.34;5120151;28;20027;-67
2023/04/03 01:59:28;;;;;;;;;;;;;;;6.19;100.00;98611.81;5117121;28;19931;-69
2023/04/03 02:01:54;;;;;;;;;;;;;;;6.10;100.00;98604.34;5111277;28;20015;-69
2023/04/03 02:04:20;;;;;;;;;;;;;;;5.72;100.00;98625.63;5119823;28;19970;-68
2023/04/03 02:06:48;;;;;;;;;;;;;;;6.07;100.00;98621.50;5120260;28;19931;-70
2023/04/03 02:09:14;;;;;;;;;;;;;;;6.50;100.00;98617.03;5117921;28;20397;-70
2023/04/03 02:11:41;;;;;;;;;;;;;;;6.31;100.00;98623.34;5116893;28;19931;-68
2023/04/03 02:14:09;;;;;;;;;;;;;;;6.26;100.00;98612.59;5118058;28;19951;-68
2023/04/03 02:16:35;;;;;;;;;;;;;;;5.87;100.00;98620.88;5120414;28;19924;-69
2023/04/03 02:19:02;;;;;;;;;;;;;;;5.88;100.00;98625.16;5119860;28;19983;-68
2023/04/03 02:21:28;;;;;;;;;;;;;;;5.36;100.00;98621.78;5116842;28;19931;-69
2023/04/03 02:23:56;;;;;;;;;;;;;;;6.07;100.00;98623.34;5116758;28;19928;-68
2023/04/03 02:26:22;;;;;;;;;;;;;;;6.02;100.00;98613.41;5122570;28;20418;-67
2023/04/03 02:28:49;;;;;;;;;;;;;;;5.99;100.00;98619.16;5124398;28;19947;-68
2023/04/03 02:31:15;;;;;;;;;;;;;;;6.18;100.00;98618.16;5116691;28;19963;-69
2023/04/03 02:33:41;;;;;;;;;;;;;;;5.82;100.00;98618.00;5120605;28;19924;-69
2023/04/03 02:36:08;;;;;;;;;;;;;;;5.22;100.00;98628.16;5121992;28;19951;-68
2023/04/03 02:38:34;;;;;;;;;;;;;;;5.80;100.00;98612.94;5124202;28;20372;-68
2023/04/03 02:41:03;;;;;;;;;;;;;;;5.64;100.00;98620.56;5123682;28;20020;-69
2023/04/03 02:43:29;;;;;;;;;;;;;;;5.35;100.00;98612.19;5120322;28;19970;-69
2023/04/03 02:45:56;;;;;;;;;;;;;;;5.19;100.00;98622.47;5120492;28;20026;-69
2023/04/03 02:48:22;;;;;;;;;;;;;;;5.15;100.00;98615.97;5105611;28;19994;-71
2023/04/03 02:50:48;;;;;;;;;;;;;;;5.94;100.00;98622.44;5124064;28;19958;-69
2023/04/03 02:53:15;;;;;;;;;;;;;;;6.12;100.00;98618.22;5103170;28;19924;-69
2023/04/03 02:55:42;;;;;;;;;;;;;;;6.12;100.00;98620.88;5120620;28;20355;-70
2023/04/03 02:58:10;;;;;;;;;;;;;;;6.15;100.00;98615.94;5121604;28;19983;-68
2023/04/03 03:00:36;;;;;;;;;;;;;;;5.88;100.00;98614.56;5121340;28;19963;-69
2023/04/03 03:03:03;;;;;;;;;;;;;;;5.43;100.00;98621.72;5120679;28;19966;-68
2023/04/03 03:05:29;;;;;;;;;;;;;;;5.43;100.00;98614.59;5120903;28;19959;-69
2023/04/03 03:07:55;;;;;;;;;;;;;;;5.94;100.00;98625.06;5120692;28;19924;-68
2023/04/03 03:10:22;;;;;;;;;;;;;;;6.65;100.00;98608.75;5124024;28;19966;-71
2023/04/03 03:12:48;;;;;;;;;;;;;;;6.57;100.00;98611.66;5123819;28;20015;-70
2023/04/03 03:15:17;;;;;;;;;;;;;;;5.86;100.00;98613.94;5121768;28;19969;-71
2023/04/03 03:17:43;;;;;;;;;;;;;;;5.82;100.00;98628.59;5120826;28;19927;-69
2023/04/03 03:20:11;;;;;;;;;;;;;;;5.66;100.00;98629.97;5121826;28;19924;-70
2023/04/03 03:22:37;;;;;;;;;;;;;;;5.78;100.00;98622.13;5123824;28;19939;-69
2023/04/03 03:25:04;;;;;;;;;;;;;;;5.78;100.00;98622.94;5105055;28;19952;-69
2023/04/03 03:27:31;;;;;;;;;;;;;;;5.81;100.00;98619.88;5119675;28;19982;-68
2023/04/03 03:29:57;;;;;;;;;;;;;;;5.42;100.00;98618.28;5122358;28;19946;-69
2023/04/03 03:32:25;;;;;;;;;;;;;;;5.94;100.00;98621.66;5114889;28;19919;-68
2023/04/03 03:34:51;;;;;;;;;;;;;;;6.15;100.00;98620.44;5123530;28;19998;-66
2023/04/03 03:37:17;;;;;;;;;;;;;;;6.27;100.00;98627.47;5101950;28;20000;-69
2023/04/03 03:39:44;;;;;;;;;;;;;;;6.38;100.00;98620.63;5120300;28;20463;-70
2023/04/03 03:42:11;;;;;;;;;;;;;;;6.06;100.00;98621.75;5122036;28;19925;-68
2023/04/03 03:44:37;;;;;;;;;;;;;;;6.80;100.00;98617.16;5106079;28;19924;-68
2023/04/03 03:47:05;;;;;;;;;;;;;;;6.88;100.00;98613.38;5123309;28;19927;-69
2023/04/03 03:49:33;;;;;;;;;;;;;;;6.96;100.00;98610.44;5121384;28;19924;-69
2023/04/03 03:52:00;;;;;;;;;;;;;;;6.94;100.00;98623.91;5101311;28;19987;-68
2023/04/03 03:54:26;;;;;;;;;;;;;;;7.03;100.00;98621.75;5122873;28;19924;-68
2023/04/03 03:56:52;;;;;;;;;;;;;;;7.46;100.00;98617.13;5105154;28;19954;-69
2023/04/03 03:59:19;;;;;;;;;;;;;;;7.48;100.00;98619.56;5120536;28;19920;-69
2023/04/03 04:01:45;;;;;;;;;;;;;;;7.48;100.00;98611.59;5114201;28;19928;-69
2023/04/03 04:04:11;;;;;;;;;;;;;;;7.23;100.00;98616.22;5121501;28;19960;-68
2023/04/03 04:06:39;;;;;;;;;;;;;;;6.32;100.00;98618.84;5123689;28;19931;-69
2023/04/03 04:09:05;;;;;;;;;;;;;;;6.13;100.00;98615.34;5124007;28;19935;-68
2023/04/03 04:11:33;;;;;;;;;;;;;;;5.84;100.00;98623.91;5127293;28;19958;-68
2023/04/03 04:13:59;;;;;;;;;;;;;;;6.46;100.00;98623.84;5127972;28;19927;-67
2023/04/03 04:16:25;;;;;;;;;;;;;;;6.70;100.00;98626.63;5131638;28;19919;-68
2023/04/03 04:18:52;;;;;;;;;;;;;;;6.46;100.00;98615.06;5131538;28;19931;-70
2023/04/03 04:21:18;;;;;;;;;;;;;;;6.36;100.00;98620.03;5128944;28;19919;-70
2023/04/03 04:23:46;;;;;;;;;;;;;;;6.66;100.00;98628.09;5127835;28;19991;-69
2023/04/03 04:26:12;;;;;;;;;;;;;;;7.12;100.00;98627.59;5129333;28;19959;-70
2023/04/03 04:28:38;;;;;;;;;;;;;;;7.24;100.00;98623.16;5130061;28;19939;-68
2023/04/03 04:31:05;;;;;;;;;;;;;;;6.90;100.00;98619.28;5123145;28;19955;-69
2023/04/03 04:33:31;;;;;;;;;;;;;;;7.00;100.00;98622.22;5123665;28;19955;-69
2023/04/03 04:35:57;;;;;;;;;;;;;;;6.44;100.00;98617.09;5121315;28;20000;-70
2023/04/03 04:38:24;;;;;;;;;;;;;;;6.30;100.00;98623.56;5125169;28;19954;-70
2023/04/03 04:40:51;;;;;;;;;;;;;;;5.76;100.00;98619.69;5124667;28;19965;-69
2023/04/03 04:43:18;;;;;;;;;;;;;;;5.38;100.00;98626.88;5102441;28;19963;-72
2023/04/03 04:45:44;;;;;;;;;;;;;;;5.50;100.00;98627.00;5119457;28;19952;-69
2023/04/03 04:48:10;;;;;;;;;;;;;;;6.02;100.00;98629.31;5120569;28;19987;-68
2023/04/03 04:50:37;;;;;;;;;;;;;;;6.20;100.00;98632.00;5104313;28;19955;-67
2023/04/03 04:53:04;;;;;;;;;;;;;;;6.45;100.00;98621.38;5121695;28;19949;-70
2023/04/03 04:55:30;;;;;;;;;;;;;;;6.57;100.00;98622.28;5118385;28;20539;-69
2023/04/03 04:57:58;;;;;;;;;;;;;;;6.12;100.00;98624.34;5118633;28;19971;-70
2023/04/03 05:00:24;;;;;;;;;;;;;;;5.91;100.00;98619.41;5118232;28;19924;-69
2023/04/03 05:02:50;;;;;;;;;;;;;;;5.90;100.00;98623.09;5099545;28;19924;-72
2023/04/03 05:05:17;;;;;;;;;;;;;;;5.83;100.00;98633.72;5119646;28;19924;-70
2023/04/03 05:07:43;;;;;;;;;;;;;;;6.14;100.00;98626.75;5118508;28;19947;-68
2023/04/03 05:10:10;;;;;;;;;;;;;;;6.68;100.00;98629.53;5101140;28;19955;-70
2023/04/03 05:12:36;;;;;;;;;;;;;;;5.92;100.00;98631.63;5122292;28;19929;-69
2023/04/03 05:15:05;;;;;;;;;;;;;;;5.87;100.00;98632.28;5121213;28;19919;-68
2023/04/03 05:17:31;;;;;;;;;;;;;;;5.98;100.00;98633.41;5118367;28;20026;-72
2023/04/03 05:19:57;;;;;;;;;;;;;;;5.60;100.00;98641.38;5118296;28;19966;-69
2023/04/03 05:22:24;;;;;;;;;;;;;;;5.98;100.00;98639.53;5122028;28;19979;-68
2023/04/03 05:24:50;;;;;;;;;;;;;;;5.95;100.00;98637.31;5121771;28;19931;-68
2023/04/03 05:27:17;;;;;;;;;;;;;;;5.79;100.00;98644.94;5101116;28;19927;-67
2023/04/03 05:29:44;;;;;;;;;;;;;;;5.93;100.00;98633.25;5118932;28;19920;-67
2023/04/03 05:32:12;;;;;;;;;;;;;;;5.86;100.00;98640.44;5113136;28;19932;-70
2023/04/03 05:34:38;;;;;;;;;;;;;;;5.87;100.00;98642.06;5103637;28;19947;-70
2023/04/03 05:37:05;;;;;;;;;;;;;;;5.88;100.00;98643.72;5121795;28;19919;-70
2023/04/03 05:39:31;;;;;;;;;;;;;;;5.80;100.00;98652.69;5119497;28;19924;-69
2023/04/03 05:41:58;;;;;;;;;;;;;;;5.76;100.00;98650.66;5118384;28;19924;-69
2023/04/03 05:44:24;;;;;;;;;;;;;;;5.93;100.00;98646.53;5099910;28;19987;-69
2023/04/03 05:46:50;;;;;;;;;;;;;;;5.73;100.00;98648.44;5099207;28;20047;-70
2023/04/03 05:49:18;;;;;;;;;;;;;;;5.68;100.00;98643.81;5120086;28;19924;-70
2023/04/03 05:51:45;;;;;;;;;;;;;;;6.63;100.00;98649.78;5103316;28;19935;-71
2023/04/03 05:54:13;;;;;;;;;;;;;;;7.25;100.00;98646.84;5119686;28;19930;-70
2023/04/03 05:56:39;;;;;;;;;;;;;;;6.29;100.00;98648.47;5117721;28;19924;-71
2023/04/03 05:59:07;;;;;;;;;;;;;;;6.66;100.00;98642.19;5118558;28;19988;-69
2023/04/03 06:01:33;;;;;;;;;;;;;;;6.32;100.00;98654.16;5115951;28;20410;-70
2023/04/03 06:04:00;;;;;;;;;;;;;;;5.52;100.00;98660.19;5117926;28;19924;-69
2023/04/03 06:06:43;;;;;;;;;;;;;;;6.09;100.00;98656.59;5121161;28;19949;-69
2023/04/03 06:09:09;;;;;;;;;;;;;;;6.47;100.00;98662.59;5119421;28;19927;-70
2023/04/03 06:11:35;;;;;;;;;;;;;;;6.80;100.00;98658.81;5117808;28;20404;-70
2023/04/03 06:14:02;;;;;;;;;;;;;;;6.50;100.00;98658.69;5117667;28;19930;-70
2023/04/03 06:16:29;;;;;;;;;;;;;;;6.79;100.00;98660.66;5120982;28;19931;-69
2023/04/03 06:18:55;;;;;;;;;;;;;;;5.71;100.00;98663.75;5120998;28;19923;-71
2023/04/03 06:21:22;;;;;;;;;;;;;;;5.28;100.00;98674.19;5118024;28;19924;-70
2023/04/03 06:23:51;;;;;;;;;;;;;;;6.03;100.00;98668.06;5117197;28;20027;-70
2023/04/03 06:26:17;;;;;;;;;;;;;;;6.02;100.00;98671.75;5120158;28;20677;-68
2023/04/03 06:28:44;;;;;;;;;;;;;;;6.64;100.00;98670.00;5120904;28;19983;-73
2023/04/03 06:31:10;;;;;;;;;;;;;;;6.06;100.00;98672.13;5113924;28;19925;-70
2023/04/03 06:33:36;;;;;;;;;;;;;;;5.71;100.00;98677.00;5117240;28;19961;-72
2023/04/03 06:36:04;;;;;;;;;;;;;;;6.01;100.00;98675.41;5117780;28;19946;-69
2023/04/03 06:38:31;;;;;;;;;;;;;;;5.34;100.00;98668.03;5120784;28;19951;-71
2023/04/03 06:40:59;;;;;;;;;;;;;;;4.86;100.00;98681.63;5120901;28;19963;-70
2023/04/03 06:43:25;;;;;;;;;;;;;;;5.16;100.00;98675.84;5109000;28;20007;-70
2023/04/03 06:45:52;;;;;;;;;;;;;;;5.07;100.00;98685.06;5109168;28;19946;-69
2023/04/03 06:48:18;;;;;;;;;;;;;;;5.12;100.00;98678.09;5099396;28;19921;-70
2023/04/03 06:50:45;;;;;;;;;;;;;;;5.40;100.00;98681.25;5109131;28;19946;-71
2023/04/03 06:53:11;;;;;;;;;;;;;;;5.39;100.00;98678.78;5108538;28;19930;-69
2023/04/03 06:55:38;;;;;;;;;;;;;;;5.73;100.00;98686.38;5104826;28;19967;-69
2023/04/03 06:58:06;;;;;;;;;;;;;;;5.06;100.00;98697.47;5101841;28;19987;-70
2023/04/03 07:00:32;;;;;;;;;;;;;;;5.34;100.00;98692.69;5098814;28;19957;-69
2023/04/03 07:02:58;;;;;;;;;;;;;;;5.72;100.00;98686.59;5116728;28;19920;-69
2023/04/03 07:05:25;;;;;;;;;;;;;;;5.22;100.00;98697.03;5108885;28;19975;-70
2023/04/03 07:07:52;;;;;;;;;;;;;;;5.15;100.00;98696.22;5107710;28;19924;-71
2023/04/03 07:10:18;;;;;;;;;;;;;;;5.35;100.00;98696.16;5107683;28;19920;-70
2023/04/03 07:12:45;;;;;;;;;;;;;;;5.76;100.00;98703.66;5109801;28;19963;-69
2023/04/03 07:15:14;;;;;;;;;;;;;;;5.34;100.00;98707.75;5112002;28;19935;-71
2023/04/03 07:17:40;;;;;;;;;;;;;;;4.85;100.00;98717.09;5112207;28;19930;-71
2023/04/03 07:20:08;;;;;;;;;;;;;;;5.80;100.00;98721.59;5123448;28;19931;-70
2023/04/03 07:22:34;;;;;;;;;;;;;;;5.36;100.00;98719.78;5111163;28;19935;-70
2023/04/03 07:25:00;;;;;;;;;;;;;;;5.69;100.00;98718.81;5128879;28;19930;-70
2023/04/03 07:27:27;;;;;;;;;;;;;;;5.43;100.00;98733.81;5140334;27;19923;-69
2023/04/03 07:29:53;;;;;;;;;;;;;;;5.25;100.00;98727.56;5128090;28;19959;-68
2023/04/03 07:32:21;;;;;;;;;;;;;;;5.00;100.00;98734.56;5129229;28;19962;-69
2023/04/03 07:34:47;;;;;;;;;;;;;;;4.95;100.00;98742.31;5125645;28;20113;-71
2023/04/03 07:37:14;;;;;;;;;;;;;;;4.88;100.00;98737.84;5127710;28;19920;-71
2023/04/03 07:39:44;;;;;;;;;;;;;;;5.13;100.00;98735.34;5130565;28;19923;-72
2023/04/03 07:42:12;;;;;;;;;;;;;;;5.03;100.00;98742.06;5122057;28;19930;-71
2023/04/03 07:44:38;;;;;;;;;;;;;;;4.78;100.00;98747.22;5119978;28;20619;-70
2023/04/03 07:47:04;;;;;;;;;;;;;;;4.89;100.00;98746.56;5120539;28;19960;-70
2023/04/03 07:49:32;;;;;;;;;;;;;;;4.78;100.00;98749.84;5139501;27;19931;-68
2023/04/03 07:51:59;;;;;;;;;;;;;;;4.64;100.00;98746.38;5123211;28;19931;-68
2023/04/03 07:54:25;;;;;;;;;;;;;;;4.75;100.00;98756.38;5111628;28;19924;-69
2023/04/03 07:56:52;;;;;;;;;;;;;;;4.77;100.00;98756.16;5111433;28;19957;-70
2023/04/03 07:59:18;;;;;;;;;;;;;;;5.31;100.00;98743.44;5110446;28;19924;-69
2023/04/03 08:01:44;;;;;;;;;;;;;;;5.00;100.00;98756.53;5113487;28;19960;-70
2023/04/03 08:04:11;;;;;;;;;;;;;;;5.18;100.00;98751.41;5103090;28;20001;-68
2023/04/03 08:06:38;;;;;;;;;;;;;;;5.77;100.00;98755.66;5123017;28;20010;-71
2023/04/03 08:09:05;;;;;;;;;;;;;;;5.69;100.00;98755.91;5122216;28;19951;-68
2023/04/03 08:11:31;;;;;;;;;;;;;;;5.62;100.00;98753.28;5119453;28;19995;-69
2023/04/03 08:14:01;;;;;;;;;;;;;;;6.10;100.00;98752.84;5119609;28;19928;-69
2023/04/03 08:16:27;;;;;;;;;;;;;;;6.27;100.00;98754.81;5111174;28;19927;-68
2023/04/03 08:18:54;;;;;;;;;;;;;;;5.92;100.00;98753.56;5111271;28;19924;-70
2023/04/03 08:21:20;;;;;;;;;;;;;;;6.06;97.23;98751.69;5092967;28;19935;-69
2023/04/03 08:23:50;;;;;;;;;;;;;;;5.73;96.42;98741.19;5101021;28;19935;-69
2023/04/03 08:26:20;;;;;;;;;;;;;;;5.56;97.69;98753.31;5109944;28;19924;-69
2023/04/03 08:28:46;;;;;;;;;;;;;;;6.11;100.00;98747.34;5101153;28;19938;-71
2023/04/03 08:31:15;;;;;;;;;;;;;;;5.90;97.00;98743.19;5119193;28;19966;-69
2023/04/03 08:33:41;;;;;;;;;;;;;;;5.54;97.37;98740.28;5120070;28;19931;-69
2023/04/03 08:36:15;;;;;;;;;;;;;;;5.53;99.16;98745.78;5108271;28;19935;-71
2023/04/03 08:38:42;;;;;;;;;;;;;;;6.15;98.83;98740.59;5113028;28;19962;-71
2023/04/03 08:41:15;;;;;;;;;;;;;;;6.63;94.29;98740.00;5125953;28;19924;-69
2023/04/03 08:43:48;;;;;;;;;;;;;;;6.23;90.12;98736.84;5126689;28;19920;-72
2023/04/03 08:46:15;;;;;;;;;;;;;;;5.91;90.05;98744.03;5129130;28;19980;-69
2023/04/03 08:48:43;;;;;;;;;;;;;;;6.19;93.14;98741.78;5130075;28;19967;-69
2023/04/03 08:51:14;;;;;;;;;;;;;;;6.01;89.49;98744.34;5127949;28;19971;-72
2023/04/03 08:53:42;;;;;;;;;;;;;;;5.88;87.42;98753.19;5106777;28;19920;-70
2023/04/03 08:56:11;;;;;;;;;;;;;;;5.86;85.88;98742.00;5107216;28;19979;-70
2023/04/03 08:58:42;;;;;;;;;;;;;;;5.91;85.75;98763.38;5122784;28;20124;-70
2023/04/03 09:01:17;;;;;;;;;;;;;;;6.57;83.14;98767.41;5098390;28;19924;-71
2023/04/03 09:03:43;;;;;;;;;;;;;;;6.15;75.41;98755.69;5100889;28;19984;-69
2023/04/03 09:06:14;;;;;;;;;;;;;;;6.36;77.23;98760.66;5120146;28;19952;-69
2023/04/03 09:08:44;;;;;;;;;;;;;;;6.67;78.12;98775.72;5122493;28;19924;-70
2023/04/03 09:11:17;;;;;;;;;;;;;;;6.83;76.17;98767.22;5103286;28;19985;-69
2023/04/03 09:13:50;;;;;;;;;;;;;;;6.99;74.81;98761.34;5119808;28;19927;-69
2023/04/03 09:16:21;;;;;;;;;;;;;;;6.85;74.06;98747.38;5121852;28;19927;-71
2023/04/03 09:18:53;;;;;;;;;;;;;;;6.83;72.70;98767.22;5123127;28;19955;-69
2023/04/03 09:21:25;;;;;;;;;;;;;;;6.57;70.35;98764.78;5120159;28;19955;-71
2023/04/03 09:23:52;;;;;;;;;;;;;;;6.41;68.92;98768.75;5100545;28;19994;-70
2023/04/03 09:26:25;;;;;;;;;;;;;;;7.49;70.76;98768.16;5102848;28;19959;-69
2023/04/03 09:28:53;;;;;;;;;;;;;;;7.35;62.60;98768.53;5103887;28;19987;-72
2023/04/03 09:31:21;;;;;;;;;;;;;;;7.28;62.26;98768.59;5113831;28;19963;-70
2023/04/03 09:33:48;;;;;;;;;;;;;;;7.04;62.68;98766.81;5118136;28;19935;-69
2023/04/03 09:36:15;;;;;;;;;;;;;;;7.20;65.53;98766.25;5119414;28;19928;-69
2023/04/03 09:38:41;;;;;;;;;;;;;;;7.24;64.71;98772.72;5103634;28;19991;-70
2023/04/03 09:41:14;;;;;;;;;;;;;;;7.38;62.68;98784.84;5120353;28;19931;-68
2023/04/03 09:43:52;;;;;;;;;;;;;;;6.94;60.81;98769.97;5099936;28;19924;-70
2023/04/03 09:46:25;;;;;;;;;;;;;;;7.01;59.44;98767.25;5120755;28;19931;-70
2023/04/03 09:48:52;;;;;;;;;;;;;;;7.02;58.85;98768.88;5103531;28;19934;-69
2023/04/03 09:51:18;;;;;;;;;;;;;;;7.07;57.01;98766.38;5118736;28;19923;-70
2023/04/03 09:53:45;;;;;;;;;;;;;;;7.20;57.58;98776.88;5118013;28;19920;-70
2023/04/03 09:56:21;;;;;;;;;;;;;;;6.91;56.86;98772.25;5119072;28;21492;-68
2023/04/03 09:58:49;;;;;;;;;;;;;;;6.59;56.10;98776.00;5121164;28;19959;-66
2023/04/03 10:01:26;;;;;;;;;;;;;;;7.76;59.85;98770.50;5113782;28;19967;-67
2023/04/03 10:04:03;;;;;;;;;;;;;;;6.93;56.58;98770.97;5117660;28;19935;-71
2023/04/03 10:06:31;;;;;;;;;;;;;;;6.74;57.98;98776.50;5091246;28;19991;-68
2023/04/03 10:09:00;;;;;;;;;;;;;;;7.40;60.64;98782.78;5109459;28;19966;-70
2023/04/03 10:11:27;;;;;;;;;;;;;;;8.70;60.80;98769.81;5099432;28;19947;-68
2023/04/03 10:13:56;;;;;;;;;;;;;;;7.81;55.75;98776.78;5108531;28;19920;-69
2023/04/03 10:16:27;;;;;;;;;;;;;;;7.21;53.34;98772.38;5090267;28;19924;-70
2023/04/03 10:18:58;;;;;;;;;;;;;;;7.29;54.19;98759.59;5108392;28;19924;-69
2023/04/03 10:21:31;;;;;;;;;;;;;;;7.96;51.92;98761.22;5111806;28;19987;-69
2023/04/03 10:24:04;;;;;;;;;;;;;;;8.78;55.64;98758.81;5120678;28;19923;-71
2023/04/03 10:26:35;;;;;;;;;;;;;;;7.85;52.77;98758.53;5116656;28;19955;-69
2023/04/03 10:29:10;;;;;;;;;;;;;;;8.98;53.33;98748.59;5116783;28;19931;-69
2023/04/03 10:31:39;;;;;;;;;;;;;;;9.23;52.76;98749.19;5096952;28;19924;-69
2023/04/03 10:34:06;;;;;;;;;;;;;;;8.54;51.23;98740.13;5117156;28;19971;-68
2023/04/03 10:36:39;;;;;;;;;;;;;;;8.22;51.62;98748.59;5102209;28;19924;-69
2023/04/03 10:39:11;;;;;;;;;;;;;;;7.28;50.11;98750.00;5119692;28;19920;-69
2023/04/03 10:41:45;;;;;;;;;;;;;;;6.89;49.98;98750.41;5117273;28;20618;-71
2023/04/03 10:44:17;;;;;;;;;;;;;;;6.72;50.16;98741.38;5119186;28;20320;-68
2023/04/03 10:46:46;;;;;;;;;;;;;;;6.81;50.89;98740.88;5123197;28;19946;-70
2023/04/03 10:49:20;;;;;;;;;;;;;;;6.65;49.67;98745.94;5124701;28;19971;-70
2023/04/03 10:51:48;;;;;;;;;;;;;;;6.53;49.76;98749.28;5122664;28;19925;-70
2023/04/03 10:54:19;;;;;;;;;;;;;;;6.75;49.84;98740.94;5124731;28;19928;-70
2023/04/03 10:56:48;;;;;;;;;;;;;;;7.60;52.69;98737.38;5124902;28;19959;-71
2023/04/03 10:59:24;;;;;;;;;;;;;;;7.33;47.35;98738.72;5122626;28;19955;-70
2023/04/03 11:01:53;;;;;;;;;;;;;;;7.54;48.16;98740.91;5115983;28;19959;-72
2023/04/03 11:04:21;;;;;;;;;;;;;;;7.67;49.08;98740.75;5105985;28;19924;-69
2023/04/03 11:06:49;;;;;;;;;;;;;;;7.57;48.62;98746.59;5125138;28;19924;-68
2023/04/03 11:09:20;;;;;;;;;;;;;;;7.43;48.49;98739.00;5122436;28;19935;-71
2023/04/03 11:11:49;;;;;;;;;;;;;;;8.72;50.47;98751.75;5102675;28;20624;-69
2023/04/03 11:14:18;;;;;;;;;;;;;;;8.38;47.08;98740.00;5122370;28;19924;-67
2023/04/03 11:16:47;;;;;;;;;;;;;;;8.31;47.53;98745.41;5123551;28;20058;-67
2023/04/03 11:19:21;;;;;;;;;;;;;;;7.94;45.64;98725.25;5121905;28;19934;-69
2023/04/03 11:21:51;;;;;;;;;;;;;;;7.84;45.94;98740.94;5102418;28;19924;-67
2023/04/03 11:24:22;;;;;;;;;;;;;;;8.09;48.27;98733.63;5123206;28;19947;-71
2023/04/03 11:26:50;;;;;;;;;;;;;;;9.08;49.63;98733.66;5123947;28;19966;-71
2023/04/03 11:29:21;;;;;;;;;;;;;;;8.61;48.72;98727.53;5103771;28;20371;-71
2023/04/03 11:31:58;;;;;;;;;;;;;;;8.38;48.62;98727.50;5096965;28;19931;-72
2023/04/03 11:34:34;;;;;;;;;;;;;;;7.84;47.22;98725.81;5123732;28;19924;-70
2023/04/03 11:37:01;;;;;;;;;;;;;;;7.25;46.95;98731.84;5124203;28;19938;-71
2023/04/03 11:39:29;;;;;;;;;;;;;;;7.10;47.54;98735.91;5119708;28;19950;-72
2023/04/03 11:41:55;;;;;;;;;;;;;;;7.66;48.93;98730.34;5119851;28;19966;-70
2023/04/03 11:44:37;;;;;;;;;;;;;;;7.91;48.29;98731.84;5122768;28;19951;-70
2023/04/03 11:47:05;;;;;;;;;;;;;;;7.42;45.33;98719.59;5122802;28;19967;-71
2023/04/03 11:49:50;;;;;;;;;;;;;;;7.56;46.30;98721.06;5119858;28;19951;-71
2023/04/03 11:52:45;;;;;;;;;;;;;;;7.33;46.57;98712.97;5121745;28;19962;-71
2023/04/03 11:55:28;;;;;;;;;;;;;;;7.34;47.84;98717.22;5122610;28;19920;-71
2023/04/03 11:58:05;;;;;;;;;;;;;;;7.23;47.68;98723.28;5119370;28;19960;-70
2023/04/03 12:00:55;;;;;;;;;;;;;;;8.06;49.15;98718.13;5119818;28;19952;-71
2023/04/03 12:03:56;;;;;;;;;;;;;;;8.34;46.34;98707.69;5110432;27;19956;-70
2023/04/03 12:06:56;;;;;;;;;;;;;;;7.90;46.41;98700.16;5123915;28;19928;-71
2023/04/03 12:09:29;;;;;;;;;;;;;;;8.66;47.87;98700.22;5104353;28;19966;-71
2023/04/03 12:11:56;;;;;;;;;;;;;;;8.26;45.96;98705.34;5120473;28;19993;-69
2023/04/03 12:14:24;;;;;;;;;;;;;;;8.08;46.59;98705.41;5104960;28;19924;-71
2023/04/03 12:16:51;;;;;;;;;;;;;;;7.58;44.86;98694.25;5123239;28;19963;-72
2023/04/03 12:19:31;;;;;;;;;;;;;;;7.44;45.99;98701.56;5120700;28;19998;-69
2023/04/03 12:22:09;;;;;;;;;;;;;;;7.83;45.48;98705.56;5119988;28;19991;-72
2023/04/03 12:24:39;;;;;;;;;;;;;;;8.07;44.49;98687.84;5120269;28;19924;-69
2023/04/03 12:27:10;;;;;;;;;;;;;;;8.34;45.90;98704.22;5103003;28;19924;-71
2023/04/03 12:29:40;;;;;;;;;;;;;;;8.83;46.14;98702.97;5123262;28;20006;-69
2023/04/03 12:32:10;;;;;;;;;;;;;;;8.41;44.63;98692.44;5111800;28;19924;-71
2023/04/03 12:34:45;;;;;;;;;;;;;;;8.09;45.74;98701.72;5123253;28;19928;-69
2023/04/03 12:37:18;;;;;;;;;;;;;;;8.51;45.76;98700.66;5121889;28;19996;-71
2023/04/03 12:40:03;;;;;;;;;;;;;;;8.66;45.41;98703.66;5120678;28;20165;-69
2023/04/03 12:42:41;;;;;;;;;;;;;;;8.01;43.87;98702.03;5127515;28;19920;-69
2023/04/03 12:45:15;;;;;;;;;;;;;;;7.64;44.47;98692.53;5110751;28;19940;-70
2023/04/03 12:47:42;;;;;;;;;;;;;;;7.52;46.57;98690.63;5130402;28;19987;-71
2023/04/03 12:50:19;;;;;;;;;;;;;;;7.69;46.73;98695.34;5110466;28;19931;-72
2023/04/03 12:52:48;;;;;;;;;;;;;;;8.17;46.97;98690.72;5103533;28;19974;-69
2023/04/03 12:55:20;;;;;;;;;;;;;;;8.01;46.17;98686.09;5104360;28;20265;-71
2023/04/03 12:57:47;;;;;;;;;;;;;;;8.57;46.03;98688.28;5103836;28;19924;-68